sensor_id;sensor_type;location;lat;lon;timestamp;temperature;humidity
3528;DHT22;1778;47.966;7.854;2023-05-07T00:00:35;12.80;99.90
3528;DHT22;1778;47.966;7.854;2023-05-07T00:01:37;12.80;99.90
3528;DHT22;1778;47.966;7.854;2023-05-07T00:02:38;12.80;99.90
3528;DHT22;1778;47.966;7.854;2023-05-07T00:03:40;12.80;99.90
3528;DHT22;1778;47.966;7.854;2023-05-07T00:04:41;12.80;99.90
3528;DHT22;1778;47.966;7.854;2023-05-07T00:05:43;12.80;99.90
3528;DHT22;1778;47.966;7.854;2023-05-07T00:06:45;12.80;99.90
3528;DHT22;1778;47.966;7.854;2023-05-07T00:07:46;12.80;99.90
3528;DHT22;1778;47.966;7.854;2023-05-07T00:08:48;12.80;99.90
3528;DHT22;1778;47.966;7.854;2023-05-07T00:09:50;12.80;99.90
3528;DHT22;1778;47.966;7.854;2023-05-07T00:10:52;12.80;99.90
3528;DHT22;1778;47.966;7.854;2023-05-07T00:11:53;12.80;99.90
3528;DHT22;1778;47.966;7.854;2023-05-07T00:12:55;12.80;99.90
3528;DHT22;1778;47.966;7.854;2023-05-07T00:13:56;12.90;99.90
3528;DHT22;1778;47.966;7.854;2023-05-07T00:14:58;12.90;99.90
3528;DHT22;1778;47.966;7.854;2023-05-07T00:15:59;12.90;99.90
3528;DHT22;1778;47.966;7.854;2023-05-07T00:17:01;12.80;99.90
3528;DHT22;1778;47.966;7.854;2023-05-07T00:18:02;12.80;99.90
3528;DHT22;1778;47.966;7.854;2023-05-07T00:19:04;12.80;99.90
3528;DHT22;1778;47.966;7.854;2023-05-07T00:20:06;12.80;99.90
3528;DHT22;1778;47.966;7.854;2023-05-07T00:21:08;12.80;99.90
3528;DHT22;1778;47.966;7.854;2023-05-07T00:22:09;12.80;99.90
3528;DHT22;1778;47.966;7.854;2023-05-07T00:23:11;12.80;99.90
3528;DHT22;1778;47.966;7.854;2023-05-07T00:24:12;12.80;99.90
3528;DHT22;1778;47.966;7.854;2023-05-07T00:25:14;12.80;99.90
3528;DHT22;1778;47.966;7.854;2023-05-07T00:26:16;12.80;99.90
3528;DHT22;1778;47.966;7.854;2023-05-07T00:27:19;12.80;99.90
3528;DHT22;1778;47.966;7.854;2023-05-07T00:28:21;12.80;99.90
3528;DHT22;1778;47.966;7.854;2023-05-07T00:29:22;12.80;99.90
3528;DHT22;1778;47.966;7.854;2023-05-07T00:30:24;12.80;99.90
3528;DHT22;1778;47.966;7.854;2023-05-07T00:31:25;12.80;99.90
3528;DHT22;1778;47.966;7.854;2023-05-07T00:32:27;12.80;99.90
3528;DHT22;1778;47.966;7.854;2023-05-07T00:33:29;12.80;99.90
3528;DHT22;1778;47.966;7.854;2023-05-07T00:34:30;12.80;99.90
3528;DHT22;1778;47.966;7.854;2023-05-07T00:35:32;12.80;99.90
3528;DHT22;1778;47.966;7.854;2023-05-07T00:36:34;12.70;99.90
3528;DHT22;1778;47.966;7.854;2023-05-07T00:37:36;12.80;99.90
3528;DHT22;1778;47.966;7.854;2023-05-07T00:38:37;12.80;99.90
3528;DHT22;1778;47.966;7.854;2023-05-07T00:39:39;12.80;99.90
3528;DHT22;1778;47.966;7.854;2023-05-07T00:40:40;12.80;99.90
3528;DHT22;1778;47.966;7.854;2023-05-07T00:41:42;12.80;99.90
3528;DHT22;1778;47.966;7.854;2023-05-07T00:42:44;12.80;99.90
3528;DHT22;1778;47.966;7.854;2023-05-07T00:43:48;12.80;99.90
3528;DHT22;1778;47.966;7.854;2023-05-07T00:44:53;12.80;99.90
3528;DHT22;1778;47.966;7.854;2023-05-07T00:45:55;12.80;99.90
3528;DHT22;1778;47.966;7.854;2023-05-07T00:46:57;12.80;99.90
3528;DHT22;1778;47.966;7.854;2023-05-07T00:48:00;12.80;99.90
3528;DHT22;1778;47.966;7.854;2023-05-07T00:49:02;12.80;99.90
3528;DHT22;1778;47.966;7.854;2023-05-07T00:50:05;12.80;99.90
3528;DHT22;1778;47.966;7.854;2023-05-07T00:51:06;12.80;99.90
3528;DHT22;1778;47.966;7.854;2023-05-07T00:52:11;12.80;99.90
3528;DHT22;1778;47.966;7.854;2023-05-07T00:53:13;12.80;99.90
3528;DHT22;1778;47.966;7.854;2023-05-07T00:54:15;12.80;99.90
3528;DHT22;1778;47.966;7.854;2023-05-07T00:55:16;12.80;99.90
3528;DHT22;1778;47.966;7.854;2023-05-07T00:56:19;12.80;99.90
3528;DHT22;1778;47.966;7.854;2023-05-07T00:57:22;12.80;99.90
3528;DHT22;1778;47.966;7.854;2023-05-07T00:58:25;12.80;99.90
3528;DHT22;1778;47.966;7.854;2023-05-07T00:59:27;12.80;99.90
3528;DHT22;1778;47.966;7.854;2023-05-07T01:00:29;12.80;99.90
3528;DHT22;1778;47.966;7.854;2023-05-07T01:01:32;12.80;99.90
3528;DHT22;1778;47.966;7.854;2023-05-07T01:02:33;12.80;99.90
3528;DHT22;1778;47.966;7.854;2023-05-07T01:03:35;12.80;99.90
3528;DHT22;1778;47.966;7.854;2023-05-07T01:04:37;12.80;99.90
3528;DHT22;1778;47.966;7.854;2023-05-07T01:05:39;12.80;99.90
3528;DHT22;1778;47.966;7.854;2023-05-07T01:06:44;12.80;99.90
3528;DHT22;1778;47.966;7.854;2023-05-07T01:07:46;12.80;99.90
3528;DHT22;1778;47.966;7.854;2023-05-07T01:08:48;12.80;99.90
3528;DHT22;1778;47.966;7.854;2023-05-07T01:09:52;12.80;99.90
3528;DHT22;1778;47.966;7.854;2023-05-07T01:10:56;12.80;99.90
3528;DHT22;1778;47.966;7.854;2023-05-07T01:11:58;12.80;99.90
3528;DHT22;1778;47.966;7.854;2023-05-07T01:13:00;12.90;99.90
3528;DHT22;1778;47.966;7.854;2023-05-07T01:14:03;12.90;99.90
3528;DHT22;1778;47.966;7.854;2023-05-07T01:15:06;12.90;99.90
3528;DHT22;1778;47.966;7.854;2023-05-07T01:16:09;12.80;99.90
3528;DHT22;1778;47.966;7.854;2023-05-07T01:17:11;12.80;99.90
3528;DHT22;1778;47.966;7.854;2023-05-07T01:18:13;12.80;99.90
3528;DHT22;1778;47.966;7.854;2023-05-07T01:19:40;12.80;99.90
3528;DHT22;1778;47.966;7.854;2023-05-07T01:20:42;12.80;99.90
3528;DHT22;1778;47.966;7.854;2023-05-07T01:21:48;12.80;99.90
3528;DHT22;1778;47.966;7.854;2023-05-07T01:22:53;12.80;99.90
3528;DHT22;1778;47.966;7.854;2023-05-07T01:23:54;12.80;99.90
3528;DHT22;1778;47.966;7.854;2023-05-07T01:24:57;12.80;99.90
3528;DHT22;1778;47.966;7.854;2023-05-07T01:26:01;12.80;99.90
3528;DHT22;1778;47.966;7.854;2023-05-07T01:27:05;12.80;99.90
3528;DHT22;1778;47.966;7.854;2023-05-07T01:28:08;12.80;99.90
3528;DHT22;1778;47.966;7.854;2023-05-07T01:29:11;12.80;99.90
3528;DHT22;1778;47.966;7.854;2023-05-07T01:30:13;12.80;99.90
3528;DHT22;1778;47.966;7.854;2023-05-07T01:31:15;12.70;99.90
3528;DHT22;1778;47.966;7.854;2023-05-07T01:32:21;12.70;99.90
3528;DHT22;1778;47.966;7.854;2023-05-07T01:33:26;12.70;99.90
3528;DHT22;1778;47.966;7.854;2023-05-07T01:34:33;12.70;99.90
3528;DHT22;1778;47.966;7.854;2023-05-07T01:35:41;12.70;99.90
3528;DHT22;1778;47.966;7.854;2023-05-07T01:36:45;12.60;99.90
3528;DHT22;1778;47.966;7.854;2023-05-07T01:37:48;12.70;99.90
3528;DHT22;1778;47.966;7.854;2023-05-07T01:38:50;12.70;99.90
3528;DHT22;1778;47.966;7.854;2023-05-07T01:39:53;12.70;99.90
3528;DHT22;1778;47.966;7.854;2023-05-07T01:40:56;12.70;99.90
3528;DHT22;1778;47.966;7.854;2023-05-07T01:41:59;12.70;99.90
3528;DHT22;1778;47.966;7.854;2023-05-07T01:43:05;12.70;99.90
3528;DHT22;1778;47.966;7.854;2023-05-07T01:44:08;12.60;99.90
3528;DHT22;1778;47.966;7.854;2023-05-07T01:45:11;12.60;99.90
3528;DHT22;1778;47.966;7.854;2023-05-07T01:46:14;12.50;99.90
3528;DHT22;1778;47.966;7.854;2023-05-07T01:47:17;12.50;99.90
3528;DHT22;1778;47.966;7.854;2023-05-07T01:48:18;12.60;99.90
3528;DHT22;1778;47.966;7.854;2023-05-07T01:49:20;12.50;99.90
3528;DHT22;1778;47.966;7.854;2023-05-07T01:50:21;12.50;99.90
3528;DHT22;1778;47.966;7.854;2023-05-07T01:51:24;12.50;99.90
3528;DHT22;1778;47.966;7.854;2023-05-07T01:52:27;12.50;99.90
3528;DHT22;1778;47.966;7.854;2023-05-07T01:53:35;12.50;99.90
3528;DHT22;1778;47.966;7.854;2023-05-07T01:54:37;12.50;99.90
3528;DHT22;1778;47.966;7.854;2023-05-07T01:55:39;12.40;99.90
3528;DHT22;1778;47.966;7.854;2023-05-07T01:56:41;12.40;99.90
3528;DHT22;1778;47.966;7.854;2023-05-07T01:57:43;12.50;99.90
3528;DHT22;1778;47.966;7.854;2023-05-07T01:58:45;12.50;99.90
3528;DHT22;1778;47.966;7.854;2023-05-07T01:59:50;12.40;99.90
3528;DHT22;1778;47.966;7.854;2023-05-07T02:00:52;12.40;99.90
3528;DHT22;1778;47.966;7.854;2023-05-07T02:01:53;12.40;99.90
3528;DHT22;1778;47.966;7.854;2023-05-07T02:02:56;12.40;99.90
3528;DHT22;1778;47.966;7.854;2023-05-07T02:04:09;12.40;99.90
3528;DHT22;1778;47.966;7.854;2023-05-07T02:05:11;12.40;99.90
3528;DHT22;1778;47.966;7.854;2023-05-07T02:06:13;12.40;99.90
3528;DHT22;1778;47.966;7.854;2023-05-07T02:07:15;12.40;99.90
3528;DHT22;1778;47.966;7.854;2023-05-07T02:08:16;12.30;99.90
3528;DHT22;1778;47.966;7.854;2023-05-07T02:09:18;12.30;99.90
3528;DHT22;1778;47.966;7.854;2023-05-07T02:10:22;12.30;99.90
3528;DHT22;1778;47.966;7.854;2023-05-07T02:11:24;12.30;99.90
3528;DHT22;1778;47.966;7.854;2023-05-07T02:12:26;12.30;99.90
3528;DHT22;1778;47.966;7.854;2023-05-07T02:13:31;12.30;99.90
3528;DHT22;1778;47.966;7.854;2023-05-07T02:14:33;12.30;99.90
3528;DHT22;1778;47.966;7.854;2023-05-07T02:15:34;12.30;99.90
3528;DHT22;1778;47.966;7.854;2023-05-07T02:16:37;12.30;99.90
3528;DHT22;1778;47.966;7.854;2023-05-07T02:18:06;12.20;99.90
3528;DHT22;1778;47.966;7.854;2023-05-07T02:19:08;12.20;99.90
3528;DHT22;1778;47.966;7.854;2023-05-07T02:20:11;12.20;99.90
3528;DHT22;1778;47.966;7.854;2023-05-07T02:21:15;12.20;99.90
3528;DHT22;1778;47.966;7.854;2023-05-07T02:22:17;12.20;99.90
3528;DHT22;1778;47.966;7.854;2023-05-07T02:23:19;12.20;99.90
3528;DHT22;1778;47.966;7.854;2023-05-07T02:24:21;12.10;99.90
3528;DHT22;1778;47.966;7.854;2023-05-07T02:25:22;12.10;99.90
3528;DHT22;1778;47.966;7.854;2023-05-07T02:26:24;12.20;99.90
3528;DHT22;1778;47.966;7.854;2023-05-07T02:27:27;12.20;99.90
3528;DHT22;1778;47.966;7.854;2023-05-07T02:28:29;12.20;99.90
3528;DHT22;1778;47.966;7.854;2023-05-07T02:29:35;12.10;99.90
3528;DHT22;1778;47.966;7.854;2023-05-07T02:30:37;12.10;99.90
3528;DHT22;1778;47.966;7.854;2023-05-07T02:31:40;12.10;99.90
3528;DHT22;1778;47.966;7.854;2023-05-07T02:32:41;12.10;99.90
3528;DHT22;1778;47.966;7.854;2023-05-07T02:33:43;12.10;99.90
3528;DHT22;1778;47.966;7.854;2023-05-07T02:34:49;12.10;99.90
3528;DHT22;1778;47.966;7.854;2023-05-07T02:35:52;12.10;99.90
3528;DHT22;1778;47.966;7.854;2023-05-07T02:36:53;12.10;99.90
3528;DHT22;1778;47.966;7.854;2023-05-07T02:37:57;12.10;99.90
3528;DHT22;1778;47.966;7.854;2023-05-07T02:38:59;12.10;99.90
3528;DHT22;1778;47.966;7.854;2023-05-07T02:40:02;12.10;99.90
3528;DHT22;1778;47.966;7.854;2023-05-07T02:41:05;12.00;99.90
3528;DHT22;1778;47.966;7.854;2023-05-07T02:42:06;12.10;99.90
3528;DHT22;1778;47.966;7.854;2023-05-07T02:43:08;12.10;99.90
3528;DHT22;1778;47.966;7.854;2023-05-07T02:44:10;12.00;99.90
3528;DHT22;1778;47.966;7.854;2023-05-07T02:45:12;12.00;99.90
3528;DHT22;1778;47.966;7.854;2023-05-07T02:46:16;12.00;99.90
3528;DHT22;1778;47.966;7.854;2023-05-07T02:47:21;12.00;99.90
3528;DHT22;1778;47.966;7.854;2023-05-07T02:48:24;12.00;99.90
3528;DHT22;1778;47.966;7.854;2023-05-07T02:49:25;12.00;99.90
3528;DHT22;1778;47.966;7.854;2023-05-07T02:50:27;12.00;99.90
3528;DHT22;1778;47.966;7.854;2023-05-07T02:51:30;12.00;99.90
3528;DHT22;1778;47.966;7.854;2023-05-07T02:52:34;12.00;99.90
3528;DHT22;1778;47.966;7.854;2023-05-07T02:53:36;12.00;99.90
3528;DHT22;1778;47.966;7.854;2023-05-07T02:54:38;11.90;99.90
3528;DHT22;1778;47.966;7.854;2023-05-07T02:55:39;11.90;99.90
3528;DHT22;1778;47.966;7.854;2023-05-07T02:56:41;11.90;99.90
3528;DHT22;1778;47.966;7.854;2023-05-07T02:57:42;11.90;99.90
3528;DHT22;1778;47.966;7.854;2023-05-07T02:58:44;11.90;99.90
3528;DHT22;1778;47.966;7.854;2023-05-07T02:59:47;11.90;99.90
3528;DHT22;1778;47.966;7.854;2023-05-07T03:00:49;11.90;99.90
3528;DHT22;1778;47.966;7.854;2023-05-07T03:02:02;11.90;99.90
3528;DHT22;1778;47.966;7.854;2023-05-07T03:03:03;11.80;99.90
3528;DHT22;1778;47.966;7.854;2023-05-07T03:04:05;11.90;99.90
3528;DHT22;1778;47.966;7.854;2023-05-07T03:05:07;12.00;99.90
3528;DHT22;1778;47.966;7.854;2023-05-07T03:06:09;11.90;99.90
3528;DHT22;1778;47.966;7.854;2023-05-07T03:07:11;12.00;99.90
3528;DHT22;1778;47.966;7.854;2023-05-07T03:08:13;11.90;99.90
3528;DHT22;1778;47.966;7.854;2023-05-07T03:09:14;12.00;99.90
3528;DHT22;1778;47.966;7.854;2023-05-07T03:10:16;12.00;99.90
3528;DHT22;1778;47.966;7.854;2023-05-07T03:11:18;11.90;99.90
3528;DHT22;1778;47.966;7.854;2023-05-07T03:12:19;11.90;99.90
3528;DHT22;1778;47.966;7.854;2023-05-07T03:13:21;11.90;99.90
3528;DHT22;1778;47.966;7.854;2023-05-07T03:14:23;11.90;99.90
3528;DHT22;1778;47.966;7.854;2023-05-07T03:15:24;11.80;99.90
3528;DHT22;1778;47.966;7.854;2023-05-07T03:16:27;11.80;99.90
3528;DHT22;1778;47.966;7.854;2023-05-07T03:17:29;11.80;99.90
3528;DHT22;1778;47.966;7.854;2023-05-07T03:18:30;11.80;99.90
3528;DHT22;1778;47.966;7.854;2023-05-07T03:19:33;11.80;99.90
3528;DHT22;1778;47.966;7.854;2023-05-07T03:20:34;11.80;99.90
3528;DHT22;1778;47.966;7.854;2023-05-07T03:21:38;11.80;99.90
3528;DHT22;1778;47.966;7.854;2023-05-07T03:22:39;11.80;99.90
3528;DHT22;1778;47.966;7.854;2023-05-07T03:23:41;11.80;99.90
3528;DHT22;1778;47.966;7.854;2023-05-07T03:24:42;11.80;99.90
3528;DHT22;1778;47.966;7.854;2023-05-07T03:25:44;11.80;99.90
3528;DHT22;1778;47.966;7.854;2023-05-07T03:26:46;11.70;99.90
3528;DHT22;1778;47.966;7.854;2023-05-07T03:27:48;11.80;99.90
3528;DHT22;1778;47.966;7.854;2023-05-07T03:28:54;11.80;99.90
3528;DHT22;1778;47.966;7.854;2023-05-07T03:29:56;11.70;99.90
3528;DHT22;1778;47.966;7.854;2023-05-07T03:30:58;11.70;99.90
3528;DHT22;1778;47.966;7.854;2023-05-07T03:32:00;11.80;99.90
3528;DHT22;1778;47.966;7.854;2023-05-07T03:33:02;11.70;99.90
3528;DHT22;1778;47.966;7.854;2023-05-07T03:34:04;11.80;99.90
3528;DHT22;1778;47.966;7.854;2023-05-07T03:35:06;11.80;99.90
3528;DHT22;1778;47.966;7.854;2023-05-07T03:36:08;11.80;99.90
3528;DHT22;1778;47.966;7.854;2023-05-07T03:37:09;11.80;99.90
3528;DHT22;1778;47.966;7.854;2023-05-07T03:38:11;11.80;99.90
3528;DHT22;1778;47.966;7.854;2023-05-07T03:39:13;11.70;99.90
3528;DHT22;1778;47.966;7.854;2023-05-07T03:40:15;11.70;99.90
3528;DHT22;1778;47.966;7.854;2023-05-07T03:41:21;11.70;99.90
3528;DHT22;1778;47.966;7.854;2023-05-07T03:42:24;11.70;99.90
3528;DHT22;1778;47.966;7.854;2023-05-07T03:43:26;11.70;99.90
3528;DHT22;1778;47.966;7.854;2023-05-07T03:44:35;11.70;99.90
3528;DHT22;1778;47.966;7.854;2023-05-07T03:45:37;11.70;99.90
3528;DHT22;1778;47.966;7.854;2023-05-07T03:46:49;11.80;99.90
3528;DHT22;1778;47.966;7.854;2023-05-07T03:47:51;11.80;99.90
3528;DHT22;1778;47.966;7.854;2023-05-07T03:48:54;11.80;99.90
3528;DHT22;1778;47.966;7.854;2023-05-07T03:49:56;11.80;99.90
3528;DHT22;1778;47.966;7.854;2023-05-07T03:50:58;11.70;99.90
3528;DHT22;1778;47.966;7.854;2023-05-07T03:52:05;11.70;99.90
3528;DHT22;1778;47.966;7.854;2023-05-07T03:53:07;11.70;99.90
3528;DHT22;1778;47.966;7.854;2023-05-07T03:54:12;11.80;99.90
3528;DHT22;1778;47.966;7.854;2023-05-07T03:55:18;11.70;99.90
3528;DHT22;1778;47.966;7.854;2023-05-07T03:56:24;11.80;99.90
3528;DHT22;1778;47.966;7.854;2023-05-07T03:57:29;11.70;99.90
3528;DHT22;1778;47.966;7.854;2023-05-07T03:58:32;11.70;99.90
3528;DHT22;1778;47.966;7.854;2023-05-07T03:59:38;11.70;99.90
3528;DHT22;1778;47.966;7.854;2023-05-07T04:00:42;11.70;99.90
3528;DHT22;1778;47.966;7.854;2023-05-07T04:01:52;11.70;99.90
3528;DHT22;1778;47.966;7.854;2023-05-07T04:02:56;11.60;99.90
3528;DHT22;1778;47.966;7.854;2023-05-07T04:04:01;11.60;99.90
3528;DHT22;1778;47.966;7.854;2023-05-07T04:05:03;11.60;99.90
3528;DHT22;1778;47.966;7.854;2023-05-07T04:06:05;11.60;99.90
3528;DHT22;1778;47.966;7.854;2023-05-07T04:07:09;11.60;99.90
3528;DHT22;1778;47.966;7.854;2023-05-07T04:08:15;11.70;99.90
3528;DHT22;1778;47.966;7.854;2023-05-07T04:09:21;11.70;99.90
3528;DHT22;1778;47.966;7.854;2023-05-07T04:10:22;11.70;99.90
3528;DHT22;1778;47.966;7.854;2023-05-07T04:11:27;11.70;99.90
3528;DHT22;1778;47.966;7.854;2023-05-07T04:12:29;11.70;99.90
3528;DHT22;1778;47.966;7.854;2023-05-07T04:13:32;11.70;99.90
3528;DHT22;1778;47.966;7.854;2023-05-07T04:14:35;11.70;99.90
3528;DHT22;1778;47.966;7.854;2023-05-07T04:15:37;11.80;99.90
3528;DHT22;1778;47.966;7.854;2023-05-07T04:16:43;11.80;99.90
3528;DHT22;1778;47.966;7.854;2023-05-07T04:17:44;11.80;99.90
3528;DHT22;1778;47.966;7.854;2023-05-07T04:18:48;11.70;99.90
3528;DHT22;1778;47.966;7.854;2023-05-07T04:19:50;11.80;99.90
3528;DHT22;1778;47.966;7.854;2023-05-07T04:20:52;11.80;99.90
3528;DHT22;1778;47.966;7.854;2023-05-07T04:21:53;11.70;99.90
3528;DHT22;1778;47.966;7.854;2023-05-07T04:22:55;11.80;99.90
3528;DHT22;1778;47.966;7.854;2023-05-07T04:23:57;11.70;99.90
3528;DHT22;1778;47.966;7.854;2023-05-07T04:24:58;11.80;99.90
3528;DHT22;1778;47.966;7.854;2023-05-07T04:26:00;11.80;99.90
3528;DHT22;1778;47.966;7.854;2023-05-07T04:27:08;11.70;99.90
3528;DHT22;1778;47.966;7.854;2023-05-07T04:28:09;11.80;99.90
3528;DHT22;1778;47.966;7.854;2023-05-07T04:29:11;11.80;99.90
3528;DHT22;1778;47.966;7.854;2023-05-07T04:30:13;11.80;99.90
3528;DHT22;1778;47.966;7.854;2023-05-07T04:31:16;11.80;99.90
3528;DHT22;1778;47.966;7.854;2023-05-07T04:32:20;11.90;99.90
3528;DHT22;1778;47.966;7.854;2023-05-07T04:33:22;11.90;99.90
3528;DHT22;1778;47.966;7.854;2023-05-07T04:34:24;11.90;99.90
3528;DHT22;1778;47.966;7.854;2023-05-07T04:35:26;12.00;99.90
3528;DHT22;1778;47.966;7.854;2023-05-07T04:36:28;12.00;99.90
3528;DHT22;1778;47.966;7.854;2023-05-07T04:37:34;12.00;99.90
3528;DHT22;1778;47.966;7.854;2023-05-07T04:38:37;12.00;99.90
3528;DHT22;1778;47.966;7.854;2023-05-07T04:39:39;12.00;99.90
3528;DHT22;1778;47.966;7.854;2023-05-07T04:40:41;12.00;99.90
3528;DHT22;1778;47.966;7.854;2023-05-07T04:41:44;12.00;99.90
3528;DHT22;1778;47.966;7.854;2023-05-07T04:42:46;12.10;99.90
3528;DHT22;1778;47.966;7.854;2023-05-07T04:43:48;12.10;99.90
3528;DHT22;1778;47.966;7.854;2023-05-07T04:44:53;12.10;99.90
3528;DHT22;1778;47.966;7.854;2023-05-07T04:45:55;12.10;99.90
3528;DHT22;1778;47.966;7.854;2023-05-07T04:46:59;12.20;99.90
3528;DHT22;1778;47.966;7.854;2023-05-07T04:48:01;12.10;99.90
3528;DHT22;1778;47.966;7.854;2023-05-07T04:49:04;12.20;99.90
3528;DHT22;1778;47.966;7.854;2023-05-07T04:50:07;12.20;99.90
3528;DHT22;1778;47.966;7.854;2023-05-07T04:51:10;12.20;99.90
3528;DHT22;1778;47.966;7.854;2023-05-07T04:52:11;12.20;99.90
3528;DHT22;1778;47.966;7.854;2023-05-07T04:53:13;12.20;99.90
3528;DHT22;1778;47.966;7.854;2023-05-07T04:54:15;12.20;99.90
3528;DHT22;1778;47.966;7.854;2023-05-07T04:55:16;12.20;99.90
3528;DHT22;1778;47.966;7.854;2023-05-07T04:56:18;12.30;99.90
3528;DHT22;1778;47.966;7.854;2023-05-07T04:57:20;12.30;99.90
3528;DHT22;1778;47.966;7.854;2023-05-07T04:58:23;12.30;99.90
3528;DHT22;1778;47.966;7.854;2023-05-07T04:59:24;12.30;99.90
3528;DHT22;1778;47.966;7.854;2023-05-07T05:00:26;12.40;99.90
3528;DHT22;1778;47.966;7.854;2023-05-07T05:01:28;12.50;99.90
3528;DHT22;1778;47.966;7.854;2023-05-07T05:02:31;12.50;99.90
3528;DHT22;1778;47.966;7.854;2023-05-07T05:03:33;12.50;99.90
3528;DHT22;1778;47.966;7.854;2023-05-07T05:04:34;12.60;99.90
3528;DHT22;1778;47.966;7.854;2023-05-07T05:05:36;12.60;99.90
3528;DHT22;1778;47.966;7.854;2023-05-07T05:06:39;12.60;99.90
3528;DHT22;1778;47.966;7.854;2023-05-07T05:07:41;12.60;99.90
3528;DHT22;1778;47.966;7.854;2023-05-07T05:08:43;12.70;99.90
3528;DHT22;1778;47.966;7.854;2023-05-07T05:09:45;12.70;99.90
3528;DHT22;1778;47.966;7.854;2023-05-07T05:10:46;12.80;99.90
3528;DHT22;1778;47.966;7.854;2023-05-07T05:11:50;12.80;99.90
3528;DHT22;1778;47.966;7.854;2023-05-07T05:12:51;12.80;99.90
3528;DHT22;1778;47.966;7.854;2023-05-07T05:13:55;12.90;99.90
3528;DHT22;1778;47.966;7.854;2023-05-07T05:14:56;12.90;99.90
3528;DHT22;1778;47.966;7.854;2023-05-07T05:15:58;13.00;99.90
3528;DHT22;1778;47.966;7.854;2023-05-07T05:17:03;13.00;99.90
3528;DHT22;1778;47.966;7.854;2023-05-07T05:18:05;13.10;99.90
3528;DHT22;1778;47.966;7.854;2023-05-07T05:19:06;13.20;99.90
3528;DHT22;1778;47.966;7.854;2023-05-07T05:20:11;13.20;99.90
3528;DHT22;1778;47.966;7.854;2023-05-07T05:21:14;13.30;99.90
3528;DHT22;1778;47.966;7.854;2023-05-07T05:22:18;13.30;99.90
3528;DHT22;1778;47.966;7.854;2023-05-07T05:23:19;13.30;99.90
3528;DHT22;1778;47.966;7.854;2023-05-07T05:24:21;13.40;99.90
3528;DHT22;1778;47.966;7.854;2023-05-07T05:25:23;13.40;99.90
3528;DHT22;1778;47.966;7.854;2023-05-07T05:26:25;13.40;99.90
3528;DHT22;1778;47.966;7.854;2023-05-07T05:27:27;13.50;99.90
3528;DHT22;1778;47.966;7.854;2023-05-07T05:28:28;13.50;99.90
3528;DHT22;1778;47.966;7.854;2023-05-07T05:29:30;13.50;99.90
3528;DHT22;1778;47.966;7.854;2023-05-07T05:30:33;13.60;99.90
3528;DHT22;1778;47.966;7.854;2023-05-07T05:31:34;13.70;99.90
3528;DHT22;1778;47.966;7.854;2023-05-07T05:32:36;13.70;99.90
3528;DHT22;1778;47.966;7.854;2023-05-07T05:33:39;13.70;99.90
3528;DHT22;1778;47.966;7.854;2023-05-07T05:34:41;13.70;99.90
3528;DHT22;1778;47.966;7.854;2023-05-07T05:35:43;13.80;99.90
3528;DHT22;1778;47.966;7.854;2023-05-07T05:36:46;13.90;99.90
3528;DHT22;1778;47.966;7.854;2023-05-07T05:37:49;13.90;99.90
3528;DHT22;1778;47.966;7.854;2023-05-07T05:38:51;13.90;99.90
3528;DHT22;1778;47.966;7.854;2023-05-07T05:39:53;13.90;99.90
3528;DHT22;1778;47.966;7.854;2023-05-07T05:40:56;13.90;99.90
3528;DHT22;1778;47.966;7.854;2023-05-07T05:41:57;14.00;99.90
3528;DHT22;1778;47.966;7.854;2023-05-07T05:42:59;14.00;99.90
3528;DHT22;1778;47.966;7.854;2023-05-07T05:44:01;14.00;99.90
3528;DHT22;1778;47.966;7.854;2023-05-07T05:45:03;14.10;99.90
3528;DHT22;1778;47.966;7.854;2023-05-07T05:46:06;14.10;99.90
3528;DHT22;1778;47.966;7.854;2023-05-07T05:47:09;14.10;99.90
3528;DHT22;1778;47.966;7.854;2023-05-07T05:48:11;14.20;99.90
3528;DHT22;1778;47.966;7.854;2023-05-07T05:49:14;14.20;99.90
3528;DHT22;1778;47.966;7.854;2023-05-07T05:50:17;14.20;99.90
3528;DHT22;1778;47.966;7.854;2023-05-07T05:51:18;14.20;99.90
3528;DHT22;1778;47.966;7.854;2023-05-07T05:52:20;14.30;99.90
3528;DHT22;1778;47.966;7.854;2023-05-07T05:53:25;14.40;99.90
3528;DHT22;1778;47.966;7.854;2023-05-07T05:54:27;14.50;99.90
3528;DHT22;1778;47.966;7.854;2023-05-07T05:55:29;14.50;99.90
3528;DHT22;1778;47.966;7.854;2023-05-07T05:56:31;14.50;99.90
3528;DHT22;1778;47.966;7.854;2023-05-07T05:57:33;14.60;99.90
3528;DHT22;1778;47.966;7.854;2023-05-07T05:58:34;14.70;99.90
3528;DHT22;1778;47.966;7.854;2023-05-07T05:59:39;14.80;99.90
3528;DHT22;1778;47.966;7.854;2023-05-07T06:00:41;14.90;99.90
3528;DHT22;1778;47.966;7.854;2023-05-07T06:01:43;15.00;99.90
3528;DHT22;1778;47.966;7.854;2023-05-07T06:02:45;15.10;99.90
3528;DHT22;1778;47.966;7.854;2023-05-07T06:03:52;15.20;99.90
3528;DHT22;1778;47.966;7.854;2023-05-07T06:04:54;15.30;99.90
3528;DHT22;1778;47.966;7.854;2023-05-07T06:05:57;15.30;99.90
3528;DHT22;1778;47.966;7.854;2023-05-07T06:06:58;15.30;99.90
3528;DHT22;1778;47.966;7.854;2023-05-07T06:08:00;15.40;99.90
3528;DHT22;1778;47.966;7.854;2023-05-07T06:09:05;15.50;99.90
3528;DHT22;1778;47.966;7.854;2023-05-07T06:10:14;15.60;99.90
3528;DHT22;1778;47.966;7.854;2023-05-07T06:11:16;15.70;99.90
3528;DHT22;1778;47.966;7.854;2023-05-07T06:12:20;15.80;99.90
3528;DHT22;1778;47.966;7.854;2023-05-07T06:13:23;15.90;99.90
3528;DHT22;1778;47.966;7.854;2023-05-07T06:14:25;16.00;99.90
3528;DHT22;1778;47.966;7.854;2023-05-07T06:15:28;16.10;99.90
3528;DHT22;1778;47.966;7.854;2023-05-07T06:16:30;16.20;99.90
3528;DHT22;1778;47.966;7.854;2023-05-07T06:17:32;16.30;99.90
3528;DHT22;1778;47.966;7.854;2023-05-07T06:18:33;16.50;99.90
3528;DHT22;1778;47.966;7.854;2023-05-07T06:19:38;16.50;99.90
3528;DHT22;1778;47.966;7.854;2023-05-07T06:20:40;16.60;99.90
3528;DHT22;1778;47.966;7.854;2023-05-07T06:21:46;16.60;99.90
3528;DHT22;1778;47.966;7.854;2023-05-07T06:22:48;16.70;99.90
3528;DHT22;1778;47.966;7.854;2023-05-07T06:23:50;16.80;99.90
3528;DHT22;1778;47.966;7.854;2023-05-07T06:24:53;16.70;99.90
3528;DHT22;1778;47.966;7.854;2023-05-07T06:25:54;16.60;99.90
3528;DHT22;1778;47.966;7.854;2023-05-07T06:27:00;16.50;99.90
3528;DHT22;1778;47.966;7.854;2023-05-07T06:28:03;16.50;99.90
3528;DHT22;1778;47.966;7.854;2023-05-07T06:29:07;16.50;99.90
3528;DHT22;1778;47.966;7.854;2023-05-07T06:30:09;16.40;99.90
3528;DHT22;1778;47.966;7.854;2023-05-07T06:31:15;16.40;99.90
3528;DHT22;1778;47.966;7.854;2023-05-07T06:32:21;16.30;99.90
3528;DHT22;1778;47.966;7.854;2023-05-07T06:33:24;16.30;99.90
3528;DHT22;1778;47.966;7.854;2023-05-07T06:34:26;16.30;99.90
3528;DHT22;1778;47.966;7.854;2023-05-07T06:35:27;16.30;99.90
3528;DHT22;1778;47.966;7.854;2023-05-07T06:36:30;16.10;99.90
3528;DHT22;1778;47.966;7.854;2023-05-07T06:37:33;16.10;99.90
3528;DHT22;1778;47.966;7.854;2023-05-07T06:38:37;16.10;99.90
3528;DHT22;1778;47.966;7.854;2023-05-07T06:39:39;16.20;99.90
3528;DHT22;1778;47.966;7.854;2023-05-07T06:40:41;16.20;99.90
3528;DHT22;1778;47.966;7.854;2023-05-07T06:41:42;16.20;99.90
3528;DHT22;1778;47.966;7.854;2023-05-07T06:42:55;16.40;99.90
3528;DHT22;1778;47.966;7.854;2023-05-07T06:44:17;16.40;99.90
3528;DHT22;1778;47.966;7.854;2023-05-07T06:45:22;16.30;99.90
3528;DHT22;1778;47.966;7.854;2023-05-07T06:46:24;16.30;99.90
3528;DHT22;1778;47.966;7.854;2023-05-07T06:47:25;16.40;99.90
3528;DHT22;1778;47.966;7.854;2023-05-07T06:48:28;16.50;99.90
3528;DHT22;1778;47.966;7.854;2023-05-07T06:49:35;16.40;99.90
3528;DHT22;1778;47.966;7.854;2023-05-07T06:50:36;16.50;99.90